Time;durP1;ratioP1;P1;durP2;ratioP2;P2;SDS_P1;SDS_P2;PMS_P1;PMS_P2;Temp;Humidity;BMP_temperature;BMP_pressure;BME280_temperature;BME280_humidity;BME280_pressure;Samples;Min_cycle;Max_cycle;Signal;HPM_P1;HPM_P2
2022/12/29 00:00:10;;;;;;;;;;;19.70;53.70;;;;;;6274730;22;43775;-66
2022/12/29 00:02:41;;;;;;;;;;;19.70;53.70;;;;;;6274601;22;43367;-66
2022/12/29 00:05:09;;;;;;;;;;;19.70;53.60;;;;;;6273685;22;43408;-67
2022/12/29 00:07:36;;;;;;;;;;;19.70;53.70;;;;;;6274312;22;43937;-66
2022/12/29 00:10:03;;;;;;;;;;;19.70;53.60;;;;;;6247055;22;43368;-66
2022/12/29 00:15:36;;;;;;;;;;;19.60;53.70;;;;;;6246610;22;43427;-66
2022/12/29 00:15:37;;;;;;;;;;;19.70;53.70;;;;;;6274819;22;43423;-66
2022/12/29 00:18:05;;;;;;;;;;;19.60;53.70;;;;;;6274533;22;43781;-66
2022/12/29 00:37:16;;;;;;;;;;;19.60;53.70;;;;;;6274510;22;43420;-66
2022/12/29 00:45:21;;;;;;;;;;;19.60;53.80;;;;;;6230976;22;43571;-66
2022/12/29 00:47:49;;;;;;;;;;;19.60;53.80;;;;;;6245695;22;43534;-66
2022/12/29 00:50:16;;;;;;;;;;;19.60;53.80;;;;;;6274124;22;43745;-66
2022/12/29 00:52:44;;;;;;;;;;;19.60;53.90;;;;;;6248090;22;43382;-66
2022/12/29 00:55:11;;;;;;;;;;;19.60;53.80;;;;;;6247564;22;43385;-66
2022/12/29 00:57:39;;;;;;;;;;;19.60;53.80;;;;;;6275283;22;43602;-66
2022/12/29 01:00:07;;;;;;;;;;;19.50;53.80;;;;;;6275426;22;46018;-66
2022/12/29 01:02:34;;;;;;;;;;;19.50;53.80;;;;;;6274496;22;43562;-66
2022/12/29 01:05:02;;;;;;;;;;;19.50;53.90;;;;;;6248079;22;43429;-66
2022/12/29 01:07:30;;;;;;;;;;;19.50;53.90;;;;;;6275396;22;43402;-66
2022/12/29 01:10:18;;;;;;;;;;;19.50;53.90;;;;;;6274655;22;44112;-66
2022/12/29 01:12:45;;;;;;;;;;;19.50;53.90;;;;;;6275302;22;43469;-66
2022/12/29 01:15:13;;;;;;;;;;;19.50;54.00;;;;;;6274723;22;44052;-66
2022/12/29 01:17:41;;;;;;;;;;;19.50;54.00;;;;;;6275628;22;43410;-66
2022/12/29 01:20:09;;;;;;;;;;;19.50;54.00;;;;;;6275337;22;43818;-66
2022/12/29 01:22:36;;;;;;;;;;;19.50;54.00;;;;;;6274812;22;43493;-66
2022/12/29 01:25:04;;;;;;;;;;;19.50;54.00;;;;;;6275734;22;43417;-66
2022/12/29 01:27:33;;;;;;;;;;;19.40;54.00;;;;;;6275558;22;43848;-66
2022/12/29 01:30:00;;;;;;;;;;;19.50;54.00;;;;;;6274495;22;44030;-66
2022/12/29 01:32:27;;;;;;;;;;;19.40;54.00;;;;;;6275749;22;43459;-66
2022/12/29 01:34:55;;;;;;;;;;;19.40;54.00;;;;;;6247938;22;43430;-66
2022/12/29 01:37:22;;;;;;;;;;;19.40;54.00;;;;;;6247470;22;43602;-66
2022/12/29 01:39:49;;;;;;;;;;;19.40;54.00;;;;;;6248211;22;44748;-66
2022/12/29 01:42:18;;;;;;;;;;;19.40;54.00;;;;;;6275489;22;43802;-66
2022/12/29 01:44:56;;;;;;;;;;;19.40;54.00;;;;;;6274847;22;43385;-66
2022/12/29 01:47:33;;;;;;;;;;;19.40;54.00;;;;;;6248373;22;43919;-66
2022/12/29 01:50:09;;;;;;;;;;;19.40;54.00;;;;;;6275664;22;44954;-66
2022/12/29 01:52:38;;;;;;;;;;;19.40;54.00;;;;;;6275492;22;43838;-66
2022/12/29 01:55:06;;;;;;;;;;;19.40;54.00;;;;;;6275368;22;43444;-66
2022/12/29 01:57:37;;;;;;;;;;;19.40;54.00;;;;;;6274600;22;43561;-66
2022/12/29 02:00:07;;;;;;;;;;;19.40;54.00;;;;;;6247958;22;44657;-66
2022/12/29 02:02:49;;;;;;;;;;;19.40;54.00;;;;;;6275831;22;43474;-66
2022/12/29 02:05:37;;;;;;;;;;;19.40;54.00;;;;;;6275042;22;43407;-67
2022/12/29 02:08:05;;;;;;;;;;;19.40;54.00;;;;;;6248349;22;43442;-66
2022/12/29 02:10:34;;;;;;;;;;;19.40;54.00;;;;;;6248018;22;44101;-66
2022/12/29 02:13:02;;;;;;;;;;;19.30;54.00;;;;;;6246793;22;43462;-66
2022/12/29 02:15:32;;;;;;;;;;;19.40;54.00;;;;;;6242645;22;43426;-66
2022/12/29 02:18:19;;;;;;;;;;;19.40;54.00;;;;;;6242925;22;43569;-66
2022/12/29 02:20:46;;;;;;;;;;;19.30;54.00;;;;;;6242672;22;43668;-66
2022/12/29 02:23:40;;;;;;;;;;;19.30;54.00;;;;;;6242361;22;43407;-67
2022/12/29 02:26:26;;;;;;;;;;;19.30;54.00;;;;;;6207444;22;43533;-67
2022/12/29 02:29:03;;;;;;;;;;;19.30;54.10;;;;;;6244495;22;43329;-67
2022/12/29 02:31:34;;;;;;;;;;;19.30;53.90;;;;;;6242624;22;44912;-67
2022/12/29 02:34:20;;;;;;;;;;;19.40;54.00;;;;;;6243789;22;43462;-67
2022/12/29 02:37:08;;;;;;;;;;;19.30;54.10;;;;;;6242994;22;43370;-67
2022/12/29 02:39:43;;;;;;;;;;;19.30;54.10;;;;;;6242277;22;43429;-67
2022/12/29 02:42:14;;;;;;;;;;;19.30;54.20;;;;;;6241884;22;43791;-67
2022/12/29 02:45:02;;;;;;;;;;;19.30;54.30;;;;;;6242497;22;43434;-67
2022/12/29 02:47:39;;;;;;;;;;;19.30;54.10;;;;;;6243807;22;43377;-66
2022/12/29 02:50:28;;;;;;;;;;;19.30;54.30;;;;;;6243126;22;43563;-67
2022/12/29 02:53:00;;;;;;;;;;;19.30;54.10;;;;;;6233694;22;43747;-66
2022/12/29 02:55:27;;;;;;;;;;;19.30;54.20;;;;;;6244114;22;43361;-66
2022/12/29 02:58:15;;;;;;;;;;;19.20;54.20;;;;;;6244664;22;43396;-67
2022/12/29 03:01:16;;;;;;;;;;;19.20;54.20;;;;;;6242213;22;43538;-66
2022/12/29 03:03:48;;;;;;;;;;;19.20;54.30;;;;;;6244255;22;43766;-66
2022/12/29 03:06:18;;;;;;;;;;;19.20;54.30;;;;;;6244299;22;43899;-66
2022/12/29 03:08:59;;;;;;;;;;;19.20;54.40;;;;;;6243794;22;43363;-66
2022/12/29 03:17:09;;;;;;;;;;;19.20;54.30;;;;;;6247794;22;43467;-64
2022/12/29 03:19:40;;;;;;;;;;;19.10;54.30;;;;;;6248211;22;43400;-64
2022/12/29 03:22:30;;;;;;;;;;;19.10;54.30;;;;;;6246986;22;43521;-64
2022/12/29 03:25:05;;;;;;;;;;;19.20;54.40;;;;;;6247415;22;44628;-64
2022/12/29 03:27:42;;;;;;;;;;;19.20;54.40;;;;;;6248133;22;43483;-64
2022/12/29 03:30:10;;;;;;;;;;;19.10;54.30;;;;;;6247330;22;43419;-64
2022/12/29 03:32:50;;;;;;;;;;;19.20;54.40;;;;;;6275056;22;43403;-64
2022/12/29 03:35:19;;;;;;;;;;;19.10;54.30;;;;;;6247340;22;44007;-64
2022/12/29 03:37:55;;;;;;;;;;;19.10;54.40;;;;;;6246436;22;43370;-64
2022/12/29 03:40:23;;;;;;;;;;;19.20;54.40;;;;;;6247988;22;43364;-64
2022/12/29 03:42:52;;;;;;;;;;;19.10;54.30;;;;;;6273920;22;43945;-64
2022/12/29 03:45:20;;;;;;;;;;;19.20;54.40;;;;;;6247604;22;44115;-64
2022/12/29 03:47:47;;;;;;;;;;;19.10;54.40;;;;;;6247215;22;43899;-64
2022/12/29 03:50:16;;;;;;;;;;;19.10;54.30;;;;;;6246483;22;43413;-64
2022/12/29 03:52:44;;;;;;;;;;;19.10;54.30;;;;;;6247451;22;43427;-64
2022/12/29 03:55:12;;;;;;;;;;;19.10;54.40;;;;;;6247598;22;45017;-64
2022/12/29 03:57:39;;;;;;;;;;;19.10;54.30;;;;;;6246591;22;43680;-64
2022/12/29 04:00:11;;;;;;;;;;;19.10;54.40;;;;;;6247304;22;43316;-64
2022/12/29 04:02:41;;;;;;;;;;;19.10;54.40;;;;;;6275048;22;43474;-64
2022/12/29 04:05:14;;;;;;;;;;;19.10;54.40;;;;;;6247170;22;43991;-64
2022/12/29 04:07:41;;;;;;;;;;;19.00;54.30;;;;;;6273896;22;43433;-64
2022/12/29 04:10:09;;;;;;;;;;;19.10;54.40;;;;;;6247470;22;43431;-64
2022/12/29 04:12:37;;;;;;;;;;;19.10;54.40;;;;;;6246420;22;43407;-64
2022/12/29 04:15:05;;;;;;;;;;;19.10;54.40;;;;;;6247094;22;43832;-64
2022/12/29 04:17:33;;;;;;;;;;;19.00;54.30;;;;;;6247343;22;43311;-64
2022/12/29 04:22:48;;;;;;;;;;;19.00;54.30;;;;;;6247231;22;43542;-64
2022/12/29 04:25:15;;;;;;;;;;;19.00;54.30;;;;;;6246398;22;44935;-64
2022/12/29 04:27:44;;;;;;;;;;;19.00;54.30;;;;;;6248483;22;43360;-64
2022/12/29 04:30:30;;;;;;;;;;;19.00;54.30;;;;;;6276183;22;43340;-64
2022/12/29 04:33:12;;;;;;;;;;;19.00;54.30;;;;;;6248116;22;43415;-64
2022/12/29 04:35:42;;;;;;;;;;;19.00;54.30;;;;;;6275631;22;43993;-64
2022/12/29 04:38:11;;;;;;;;;;;19.00;54.90;;;;;;6248191;22;43478;-64
2022/12/29 04:40:39;;;;;;;;;;;19.00;54.40;;;;;;6247547;22;43521;-64
2022/12/29 04:43:07;;;;;;;;;;;18.90;54.30;;;;;;6275528;22;43586;-64
2022/12/29 04:45:48;;;;;;;;;;;19.00;54.40;;;;;;6248110;22;44599;-64
2022/12/29 04:48:32;;;;;;;;;;;18.90;54.30;;;;;;6248515;22;43756;-64
2022/12/29 04:51:24;;;;;;;;;;;18.90;54.30;;;;;;6231795;22;43510;-64
2022/12/29 04:53:51;;;;;;;;;;;18.90;54.30;;;;;;6222413;22;43509;-64
2022/12/29 04:56:19;;;;;;;;;;;18.90;54.30;;;;;;6248510;22;43760;-64
2022/12/29 04:58:47;;;;;;;;;;;18.90;54.30;;;;;;6247575;22;44110;-64
2022/12/29 05:01:14;;;;;;;;;;;18.90;54.30;;;;;;6247316;22;43418;-64
2022/12/29 05:03:43;;;;;;;;;;;18.90;54.30;;;;;;6248418;22;43404;-64
2022/12/29 05:06:11;;;;;;;;;;;18.90;54.40;;;;;;6275497;22;44994;-64
2022/12/29 05:08:38;;;;;;;;;;;18.90;54.30;;;;;;6247256;22;43448;-64
2022/12/29 05:11:06;;;;;;;;;;;18.90;54.40;;;;;;6248002;22;43900;-64
2022/12/29 05:13:33;;;;;;;;;;;18.90;54.30;;;;;;6248174;22;43682;-64
2022/12/29 05:16:02;;;;;;;;;;;18.80;54.30;;;;;;6242152;22;44029;-64
2022/12/29 05:18:29;;;;;;;;;;;18.90;54.30;;;;;;6243178;22;43455;-64
2022/12/29 05:20:58;;;;;;;;;;;18.90;54.30;;;;;;6243397;22;43356;-64
2022/12/29 05:23:25;;;;;;;;;;;18.80;54.30;;;;;;6242616;22;43578;-65
2022/12/29 05:26:00;;;;;;;;;;;18.90;54.30;;;;;;6242890;22;43708;-64
2022/12/29 05:28:33;;;;;;;;;;;18.80;54.90;;;;;;6243767;22;43457;-64
2022/12/29 05:31:07;;;;;;;;;;;18.90;54.20;;;;;;6243714;22;43370;-64
2022/12/29 05:33:34;;;;;;;;;;;18.80;54.20;;;;;;6243230;22;43554;-64
2022/12/29 05:36:07;;;;;;;;;;;18.80;54.20;;;;;;6242207;22;44730;-64
2022/12/29 05:38:36;;;;;;;;;;;18.90;54.20;;;;;;6242866;22;43588;-65
2022/12/29 05:41:04;;;;;;;;;;;18.80;54.20;;;;;;6244552;22;43403;-65
2022/12/29 05:43:50;;;;;;;;;;;18.80;54.30;;;;;;6244040;22;43530;-63
2022/12/29 05:46:40;;;;;;;;;;;18.80;54.30;;;;;;6200146;22;43773;-64
2022/12/29 05:49:16;;;;;;;;;;;18.80;54.30;;;;;;6242179;22;43565;-64
2022/12/29 05:51:54;;;;;;;;;;;18.80;54.30;;;;;;6243553;22;43403;-64
2022/12/29 05:54:22;;;;;;;;;;;18.80;54.30;;;;;;6244459;22;43451;-63
2022/12/29 05:56:50;;;;;;;;;;;18.80;54.30;;;;;;6241724;22;43836;-63
2022/12/29 05:59:17;;;;;;;;;;;18.80;54.30;;;;;;6243078;22;43353;-63
2022/12/29 06:01:46;;;;;;;;;;;18.80;54.30;;;;;;6241876;22;43425;-63
2022/12/29 06:04:13;;;;;;;;;;;18.80;54.30;;;;;;6241345;22;43429;-64
2022/12/29 06:06:41;;;;;;;;;;;18.70;54.20;;;;;;6242709;22;44654;-64
2022/12/29 06:09:15;;;;;;;;;;;18.70;54.30;;;;;;6242900;22;43376;-64
2022/12/29 06:11:43;;;;;;;;;;;18.80;54.30;;;;;;6242377;22;43331;-63
2022/12/29 06:14:10;;;;;;;;;;;18.80;54.20;;;;;;6242921;22;43420;-63
2022/12/29 06:16:38;;;;;;;;;;;18.80;54.30;;;;;;6241796;22;45347;-64
2022/12/29 06:19:08;;;;;;;;;;;18.80;54.20;;;;;;6241746;22;43791;-64
2022/12/29 06:21:37;;;;;;;;;;;18.70;54.20;;;;;;6242317;22;43395;-63
2022/12/29 06:24:05;;;;;;;;;;;18.70;54.20;;;;;;6217344;22;43849;-65
2022/12/29 06:26:34;;;;;;;;;;;18.70;54.30;;;;;;6211901;22;44849;-65
2022/12/29 06:29:02;;;;;;;;;;;18.70;54.30;;;;;;6216736;22;43698;-66
2022/12/29 06:31:30;;;;;;;;;;;18.70;54.40;;;;;;6241654;22;43402;-66
2022/12/29 06:33:57;;;;;;;;;;;18.70;54.30;;;;;;6243321;22;43581;-65
2022/12/29 06:36:29;;;;;;;;;;;18.70;54.30;;;;;;6242591;22;44768;-67
2022/12/29 06:38:56;;;;;;;;;;;18.70;54.40;;;;;;6216146;22;43758;-67
2022/12/29 06:41:24;;;;;;;;;;;18.60;54.30;;;;;;6216648;22;43448;-66
2022/12/29 06:44:21;;;;;;;;;;;18.70;54.40;;;;;;6234520;22;43465;-66
2022/12/29 06:46:59;;;;;;;;;;;18.60;54.30;;;;;;6242431;22;44005;-67
2022/12/29 06:49:27;;;;;;;;;;;18.70;54.40;;;;;;6243400;22;43327;-67
2022/12/29 06:51:54;;;;;;;;;;;18.60;54.30;;;;;;6243883;22;43399;-65
2022/12/29 06:54:21;;;;;;;;;;;18.60;54.30;;;;;;6243891;22;43485;-65
2022/12/29 06:56:49;;;;;;;;;;;18.70;54.40;;;;;;6243732;22;43692;-65
2022/12/29 06:59:16;;;;;;;;;;;18.70;54.30;;;;;;6244003;22;43467;-65
2022/12/29 07:01:43;;;;;;;;;;;18.70;54.20;;;;;;6243395;22;43436;-64
2022/12/29 07:04:11;;;;;;;;;;;18.70;54.20;;;;;;6244128;22;43478;-65
2022/12/29 07:06:40;;;;;;;;;;;18.70;54.20;;;;;;6242982;22;45033;-65
2022/12/29 07:09:08;;;;;;;;;;;18.70;54.20;;;;;;6243354;22;43465;-64
2022/12/29 07:11:36;;;;;;;;;;;18.70;54.20;;;;;;6243972;22;43370;-65
2022/12/29 07:14:03;;;;;;;;;;;18.70;54.20;;;;;;6243216;22;43410;-64
2022/12/29 07:16:31;;;;;;;;;;;18.70;54.20;;;;;;6273392;22;43786;-65
2022/12/29 07:18:59;;;;;;;;;;;18.70;54.20;;;;;;6274228;22;43460;-65
2022/12/29 07:21:26;;;;;;;;;;;18.70;54.10;;;;;;6274451;22;43451;-65
2022/12/29 07:23:55;;;;;;;;;;;18.60;54.10;;;;;;6274980;22;43446;-65
2022/12/29 07:26:22;;;;;;;;;;;18.60;54.10;;;;;;6275094;22;43998;-65
2022/12/29 07:28:50;;;;;;;;;;;18.60;54.10;;;;;;6246251;22;43421;-65
2022/12/29 07:31:19;;;;;;;;;;;18.60;54.10;;;;;;6274892;22;43472;-65
2022/12/29 07:33:47;;;;;;;;;;;18.60;54.10;;;;;;6247447;22;43596;-65
2022/12/29 07:36:16;;;;;;;;;;;18.60;54.10;;;;;;6274046;22;44604;-64
2022/12/29 07:38:44;;;;;;;;;;;18.60;54.00;;;;;;6274495;22;43331;-65
2022/12/29 07:41:11;;;;;;;;;;;18.60;54.40;;;;;;6274987;22;43331;-64
2022/12/29 07:43:38;;;;;;;;;;;18.60;54.10;;;;;;6273654;22;43415;-65
2022/12/29 07:46:32;;;;;;;;;;;18.60;54.00;;;;;;6215395;22;44988;-65
2022/12/29 07:49:19;;;;;;;;;;;18.60;54.00;;;;;;6251462;22;43791;-65
2022/12/29 07:51:46;;;;;;;;;;;18.60;54.10;;;;;;6275202;22;43460;-64
2022/12/29 07:54:14;;;;;;;;;;;18.60;54.10;;;;;;6274821;22;43426;-65
2022/12/29 07:56:41;;;;;;;;;;;18.60;54.10;;;;;;6246856;22;44873;-64
2022/12/29 07:59:08;;;;;;;;;;;18.60;54.10;;;;;;6274265;22;43359;-65
2022/12/29 08:01:36;;;;;;;;;;;18.60;54.10;;;;;;6274452;22;43428;-64
2022/12/29 08:04:04;;;;;;;;;;;18.50;54.00;;;;;;6273684;22;43522;-65
2022/12/29 08:06:31;;;;;;;;;;;18.50;54.10;;;;;;6274234;22;43843;-64
2022/12/29 08:09:00;;;;;;;;;;;18.50;54.10;;;;;;6274512;22;44006;-65
2022/12/29 08:11:40;;;;;;;;;;;18.50;54.00;;;;;;6273458;22;43375;-64
2022/12/29 08:14:07;;;;;;;;;;;18.60;54.10;;;;;;6274381;22;43522;-64
2022/12/29 08:16:35;;;;;;;;;;;18.60;54.20;;;;;;6274664;22;44668;-65
2022/12/29 08:19:03;;;;;;;;;;;18.60;54.20;;;;;;6273509;22;43432;-63
2022/12/29 08:21:31;;;;;;;;;;;18.50;54.80;;;;;;6274486;22;43345;-63
2022/12/29 08:23:58;;;;;;;;;;;18.50;54.50;;;;;;6273995;22;43423;-62
2022/12/29 08:26:26;;;;;;;;;;;18.50;54.40;;;;;;6274121;22;44658;-63
2022/12/29 08:28:55;;;;;;;;;;;18.50;54.70;;;;;;6274200;22;43387;-63
2022/12/29 08:31:23;;;;;;;;;;;18.50;54.70;;;;;;6273593;22;43351;-63
2022/12/29 08:33:50;;;;;;;;;;;18.50;54.90;;;;;;6274271;22;43426;-63
2022/12/29 08:36:18;;;;;;;;;;;18.50;54.70;;;;;;6274406;22;43841;-63
2022/12/29 08:38:45;;;;;;;;;;;18.50;54.60;;;;;;6273222;22;43555;-63
2022/12/29 08:41:12;;;;;;;;;;;18.60;54.50;;;;;;6274371;22;43334;-64
2022/12/29 08:43:40;;;;;;;;;;;18.60;54.60;;;;;;6274206;22;43905;-65
2022/12/29 08:46:07;;;;;;;;;;;18.60;54.70;;;;;;6273509;22;43804;-64
2022/12/29 08:48:34;;;;;;;;;;;18.60;54.60;;;;;;6273686;22;43735;-63
2022/12/29 08:51:02;;;;;;;;;;;18.60;54.60;;;;;;6274197;22;43451;-62
2022/12/29 08:53:29;;;;;;;;;;;18.70;54.40;;;;;;6273902;22;43482;-62
2022/12/29 08:56:00;;;;;;;;;;;18.70;54.20;;;;;;6274423;22;43752;-63
2022/12/29 08:58:38;;;;;;;;;;;18.80;54.20;;;;;;6246504;22;43745;-62
2022/12/29 09:01:06;;;;;;;;;;;18.80;54.20;;;;;;6245860;22;43404;-62
2022/12/29 09:03:34;;;;;;;;;;;18.90;54.10;;;;;;6247176;22;43523;-62
2022/12/29 09:06:21;;;;;;;;;;;18.90;54.10;;;;;;6273318;22;44008;-62
2022/12/29 09:08:48;;;;;;;;;;;19.00;54.00;;;;;;6271790;22;43476;-62
2022/12/29 09:11:19;;;;;;;;;;;19.10;53.80;;;;;;6272325;22;43358;-62
2022/12/29 09:13:46;;;;;;;;;;;19.10;53.80;;;;;;6274761;22;43420;-62
2022/12/29 09:16:14;;;;;;;;;;;19.30;53.70;;;;;;6275242;22;43774;-64
2022/12/29 09:18:42;;;;;;;;;;;19.40;53.60;;;;;;6275000;22;44617;-64
2022/12/29 09:21:10;;;;;;;;;;;19.50;53.40;;;;;;6274747;22;43348;-64
2022/12/29 09:23:37;;;;;;;;;;;19.60;53.50;;;;;;6275460;22;43559;-64
2022/12/29 09:26:05;;;;;;;;;;;19.80;53.50;;;;;;6275616;22;43741;-63
2022/12/29 09:28:32;;;;;;;;;;;19.90;53.30;;;;;;6274386;22;43976;-64
2022/12/29 09:31:00;;;;;;;;;;;20.00;53.10;;;;;;6275407;22;43361;-64
2022/12/29 09:33:27;;;;;;;;;;;20.10;52.90;;;;;;6275709;22;43453;-64
2022/12/29 09:35:56;;;;;;;;;;;20.30;52.90;;;;;;6248145;22;44015;-65
2022/12/29 09:38:24;;;;;;;;;;;20.50;52.70;;;;;;6275169;22;43366;-66
2022/12/29 09:40:55;;;;;;;;;;;20.60;52.60;;;;;;6275312;22;43358;-63
2022/12/29 09:43:49;;;;;;;;;;;20.70;52.40;;;;;;6274810;22;43417;-64
2022/12/29 09:46:27;;;;;;;;;;;20.90;52.20;;;;;;6242866;22;43890;-65
2022/12/29 09:49:01;;;;;;;;;;;21.10;52.10;;;;;;6274599;22;44022;-64
2022/12/29 09:51:29;;;;;;;;;;;21.30;51.90;;;;;;6276002;22;43399;-64
2022/12/29 09:54:02;;;;;;;;;;;21.50;51.70;;;;;;6275408;22;43402;-66
2022/12/29 09:56:30;;;;;;;;;;;21.60;51.60;;;;;;6274605;22;43748;-66
2022/12/29 09:59:04;;;;;;;;;;;21.80;51.20;;;;;;6275265;22;43458;-67
2022/12/29 10:02:07;;;;;;;;;;;22.00;51.10;;;;;;6248023;22;43382;-65
2022/12/29 10:04:35;;;;;;;;;;;22.10;50.90;;;;;;6149807;23;43417;-65
2022/12/29 10:07:22;;;;;;;;;;;22.20;50.60;;;;;;6251207;22;43763;-65
2022/12/29 10:10:23;;;;;;;;;;;22.20;50.40;;;;;;6218593;22;43904;-65
2022/12/29 10:13:09;;;;;;;;;;;22.20;50.30;;;;;;6269816;22;43451;-67
2022/12/29 10:15:39;;;;;;;;;;;22.20;50.40;;;;;;6274561;22;43422;-66
2022/12/29 10:18:20;;;;;;;;;;;22.10;50.40;;;;;;6274165;22;45219;-66
2022/12/29 10:20:57;;;;;;;;;;;22.10;50.50;;;;;;6274923;22;43454;-66
2022/12/29 10:23:36;;;;;;;;;;;22.10;50.60;;;;;;6273899;22;43431;-65
2022/12/29 10:26:03;;;;;;;;;;;22.00;50.60;;;;;;6274520;22;43470;-66
2022/12/29 10:28:47;;;;;;;;;;;22.00;50.80;;;;;;6274389;22;43976;-65
2022/12/29 10:31:20;;;;;;;;;;;21.90;50.70;;;;;;6274485;22;43605;-65
2022/12/29 10:33:51;;;;;;;;;;;21.80;50.80;;;;;;6275067;22;43873;-65
2022/12/29 10:36:37;;;;;;;;;;;21.70;51.00;;;;;;6275396;22;43349;-67
2022/12/29 10:39:17;;;;;;;;;;;21.70;51.10;;;;;;6274393;22;44010;-65
2022/12/29 10:41:59;;;;;;;;;;;21.60;51.20;;;;;;6275171;22;43328;-66
2022/12/29 10:44:29;;;;;;;;;;;21.50;51.30;;;;;;6275711;22;43404;-66
2022/12/29 10:47:04;;;;;;;;;;;21.50;51.40;;;;;;6247768;22;43333;-65
2022/12/29 10:49:34;;;;;;;;;;;21.40;51.50;;;;;;6248384;22;43995;-66
2022/12/29 10:52:03;;;;;;;;;;;21.30;51.60;;;;;;6272624;22;43401;-65
2022/12/29 10:54:36;;;;;;;;;;;21.30;51.80;;;;;;6276268;22;43399;-65
2022/12/29 10:57:07;;;;;;;;;;;21.20;51.80;;;;;;6275598;22;43383;-65
2022/12/29 10:59:35;;;;;;;;;;;21.10;51.80;;;;;;6275088;22;43554;-66
2022/12/29 11:02:08;;;;;;;;;;;21.10;52.00;;;;;;6275133;22;43394;-66
2022/12/29 11:04:46;;;;;;;;;;;21.00;52.00;;;;;;6247830;22;43368;-65
2022/12/29 11:07:16;;;;;;;;;;;20.90;52.00;;;;;;6274734;22;43463;-65
2022/12/29 11:09:49;;;;;;;;;;;20.90;52.20;;;;;;6275823;22;44952;-64
2022/12/29 11:12:22;;;;;;;;;;;20.80;52.30;;;;;;6275076;22;43427;-65
2022/12/29 11:15:13;;;;;;;;;;;20.80;52.30;;;;;;6274372;22;43395;-64
2022/12/29 11:17:56;;;;;;;;;;;20.70;52.30;;;;;;6275112;22;43486;-66
2022/12/29 11:20:27;;;;;;;;;;;20.70;52.40;;;;;;6247393;22;43887;-65
2022/12/29 11:22:55;;;;;;;;;;;20.70;52.50;;;;;;6275471;22;44915;-65
2022/12/29 11:25:22;;;;;;;;;;;20.60;52.50;;;;;;6247641;22;43370;-64
2022/12/29 11:27:56;;;;;;;;;;;20.60;52.50;;;;;;6273867;22;43903;-65
2022/12/29 11:30:30;;;;;;;;;;;20.60;52.60;;;;;;6275215;22;44654;-65
2022/12/29 11:32:58;;;;;;;;;;;20.50;52.80;;;;;;6275335;22;43429;-64
2022/12/29 11:35:31;;;;;;;;;;;20.50;52.70;;;;;;6274427;22;43379;-64
2022/12/29 11:37:59;;;;;;;;;;;20.50;52.80;;;;;;6275378;22;43390;-65
2022/12/29 11:40:27;;;;;;;;;;;20.50;52.90;;;;;;6274941;22;43995;-64
2022/12/29 11:42:58;;;;;;;;;;;20.50;52.90;;;;;;6274350;22;43438;-64
2022/12/29 11:45:27;;;;;;;;;;;20.40;52.90;;;;;;6275590;22;43950;-64
2022/12/29 11:47:57;;;;;;;;;;;20.40;53.00;;;;;;6274152;22;43943;-64
2022/12/29 11:50:30;;;;;;;;;;;20.30;53.00;;;;;;6270947;22;43776;-64
2022/12/29 11:53:03;;;;;;;;;;;20.30;53.10;;;;;;6272534;22;43501;-63
2022/12/29 11:55:31;;;;;;;;;;;20.30;53.80;;;;;;6272923;22;43332;-63
2022/12/29 11:58:01;;;;;;;;;;;20.30;53.20;;;;;;6274942;22;43406;-63
2022/12/29 12:00:30;;;;;;;;;;;20.20;53.10;;;;;;6274479;22;44598;-63
2022/12/29 12:03:06;;;;;;;;;;;20.20;53.10;;;;;;6245716;22;43502;-62
2022/12/29 12:05:37;;;;;;;;;;;20.20;53.20;;;;;;6274711;22;43346;-63
2022/12/29 12:08:23;;;;;;;;;;;20.10;53.20;;;;;;6274515;22;43340;-64
2022/12/29 12:10:50;;;;;;;;;;;20.10;53.20;;;;;;6273513;22;43750;-64
2022/12/29 12:13:25;;;;;;;;;;;20.10;53.30;;;;;;6246502;22;43367;-64
2022/12/29 12:15:57;;;;;;;;;;;20.10;53.20;;;;;;6247233;22;43434;-64
2022/12/29 12:18:28;;;;;;;;;;;20.10;53.40;;;;;;6246705;22;43487;-63
2022/12/29 12:20:58;;;;;;;;;;;20.10;53.40;;;;;;6246190;22;44134;-63
2022/12/29 12:23:30;;;;;;;;;;;20.00;53.30;;;;;;6270902;22;43415;-64
2022/12/29 12:26:01;;;;;;;;;;;20.00;53.30;;;;;;6274665;22;43935;-63
2022/12/29 12:28:36;;;;;;;;;;;20.00;53.30;;;;;;6274812;22;43365;-63
2022/12/29 12:31:06;;;;;;;;;;;19.90;53.20;;;;;;6273521;22;43992;-64
2022/12/29 12:33:39;;;;;;;;;;;19.90;53.20;;;;;;6273771;22;43463;-61
2022/12/29 12:36:09;;;;;;;;;;;19.90;53.20;;;;;;6273007;22;43497;-63
2022/12/29 12:38:39;;;;;;;;;;;19.90;53.40;;;;;;6271468;22;43577;-64
2022/12/29 12:41:06;;;;;;;;;;;19.90;53.20;;;;;;6273790;22;44643;-63
2022/12/29 12:43:35;;;;;;;;;;;19.80;53.10;;;;;;6273619;22;43389;-63
2022/12/29 12:46:20;;;;;;;;;;;19.80;53.10;;;;;;6273549;22;43300;-63
2022/12/29 12:48:57;;;;;;;;;;;19.80;53.80;;;;;;6274939;22;43618;-63
2022/12/29 12:51:27;;;;;;;;;;;19.70;53.20;;;;;;6275171;22;44028;-63
2022/12/29 12:54:14;;;;;;;;;;;19.70;53.20;;;;;;6275467;22;43408;-63
2022/12/29 12:56:47;;;;;;;;;;;19.70;53.20;;;;;;6275783;22;43372;-63
2022/12/29 12:59:30;;;;;;;;;;;19.70;53.30;;;;;;6275261;22;43393;-63
2022/12/29 13:02:03;;;;;;;;;;;19.60;53.20;;;;;;6275583;22;43704;-63
2022/12/29 13:04:53;;;;;;;;;;;19.60;53.10;;;;;;6275492;22;43437;-62
2022/12/29 13:07:21;;;;;;;;;;;19.60;53.40;;;;;;6258991;22;43482;-63
2022/12/29 13:09:58;;;;;;;;;;;19.60;53.40;;;;;;6271832;22;43453;-62
2022/12/29 13:12:26;;;;;;;;;;;19.60;53.50;;;;;;6272638;22;44346;-62
2022/12/29 13:15:13;;;;;;;;;;;19.50;53.30;;;;;;6274064;22;43973;-62
2022/12/29 13:17:40;;;;;;;;;;;19.60;53.30;;;;;;6274934;22;43323;-62
2022/12/29 13:20:23;;;;;;;;;;;19.60;53.90;;;;;;6273973;22;43407;-62
2022/12/29 13:22:55;;;;;;;;;;;19.60;53.20;;;;;;6274454;22;44659;-62
2022/12/29 13:25:28;;;;;;;;;;;19.60;53.20;;;;;;6274327;22;43447;-62
2022/12/29 13:27:55;;;;;;;;;;;19.60;53.20;;;;;;6274329;22;43416;-62
2022/12/29 13:30:27;;;;;;;;;;;19.60;53.10;;;;;;6274460;22;43491;-62
2022/12/29 13:33:13;;;;;;;;;;;19.70;53.20;;;;;;6274740;22;44661;-62
2022/12/29 13:35:55;;;;;;;;;;;19.60;53.00;;;;;;6273431;22;43400;-62
2022/12/29 13:38:40;;;;;;;;;;;19.70;53.20;;;;;;6274873;22;43427;-62
2022/12/29 13:41:39;;;;;;;;;;;19.60;52.90;;;;;;6273894;22;43509;-62
2022/12/29 13:44:07;;;;;;;;;;;19.60;53.10;;;;;;6207153;22;43774;-62
2022/12/29 13:46:38;;;;;;;;;;;19.60;53.20;;;;;;6247325;22;43392;-62
2022/12/29 13:49:19;;;;;;;;;;;19.60;53.20;;;;;;6273903;22;43480;-62
2022/12/29 13:52:05;;;;;;;;;;;19.50;53.10;;;;;;6274728;22;43359;-62
2022/12/29 13:54:39;;;;;;;;;;;19.50;53.20;;;;;;6273811;22;44608;-62
2022/12/29 13:57:09;;;;;;;;;;;19.50;53.20;;;;;;6274162;22;43341;-62
2022/12/29 13:59:41;;;;;;;;;;;19.50;53.20;;;;;;6274221;22;43387;-62
2022/12/29 14:02:21;;;;;;;;;;;19.50;53.20;;;;;;6273978;22;43391;-62
2022/12/29 14:05:21;;;;;;;;;;;19.50;53.30;;;;;;6274341;22;44750;-61
2022/12/29 14:08:08;;;;;;;;;;;19.50;53.40;;;;;;6274001;22;43387;-61
2022/12/29 14:10:37;;;;;;;;;;;19.50;53.50;;;;;;6272685;22;43391;-61
2022/12/29 14:13:05;;;;;;;;;;;19.50;53.80;;;;;;6274173;22;43664;-62
2022/12/29 14:15:33;;;;;;;;;;;19.60;53.60;;;;;;6274356;22;44931;-61
2022/12/29 14:18:32;;;;;;;;;;;19.60;53.90;;;;;;6273305;22;43390;-63
2022/12/29 14:21:04;;;;;;;;;;;19.60;53.70;;;;;;6206417;22;43422;-62
2022/12/29 14:23:42;;;;;;;;;;;19.70;53.60;;;;;;6273671;22;43328;-62
2022/12/29 14:26:28;;;;;;;;;;;19.70;53.70;;;;;;6274302;22;43753;-61
2022/12/29 14:28:55;;;;;;;;;;;19.70;53.40;;;;;;6274467;22;43372;-62
2022/12/29 14:31:30;;;;;;;;;;;19.70;53.30;;;;;;6273940;22;43268;-61
2022/12/29 14:34:08;;;;;;;;;;;19.70;53.20;;;;;;6274857;22;43479;-61
2022/12/29 14:36:37;;;;;;;;;;;19.70;53.20;;;;;;6274373;22;43738;-61
2022/12/29 14:39:24;;;;;;;;;;;19.70;53.10;;;;;;6273220;22;43418;-61
2022/12/29 14:42:04;;;;;;;;;;;19.70;53.10;;;;;;6274204;22;43393;-62
2022/12/29 14:44:31;;;;;;;;;;;19.70;53.10;;;;;;6273332;22;43415;-62
2022/12/29 14:47:03;;;;;;;;;;;19.60;53.10;;;;;;6274475;22;43868;-62
2022/12/29 14:49:32;;;;;;;;;;;19.60;53.10;;;;;;6273306;22;43672;-62
2022/12/29 14:52:19;;;;;;;;;;;19.60;53.10;;;;;;6274423;22;43408;-62
2022/12/29 14:54:51;;;;;;;;;;;19.60;53.00;;;;;;6274227;22;43390;-61
2022/12/29 14:57:24;;;;;;;;;;;19.60;53.10;;;;;;6274034;22;45002;-61
2022/12/29 15:00:27;;;;;;;;;;;19.60;53.00;;;;;;6273641;22;43916;-61
2022/12/29 15:03:06;;;;;;;;;;;19.60;53.10;;;;;;6149346;23;43546;-62
2022/12/29 15:05:36;;;;;;;;;;;19.60;53.10;;;;;;6259609;22;43516;-60
2022/12/29 15:08:05;;;;;;;;;;;19.60;53.10;;;;;;6273965;22;43762;-62
2022/12/29 15:10:35;;;;;;;;;;;19.60;53.20;;;;;;6273275;22;43723;-61
2022/12/29 15:13:05;;;;;;;;;;;19.60;53.20;;;;;;6273210;22;43372;-61
2022/12/29 15:15:37;;;;;;;;;;;19.60;53.20;;;;;;6274058;22;43433;-61
2022/12/29 15:18:23;;;;;;;;;;;19.60;53.20;;;;;;6273971;22;45227;-61